sensor_id;sensor_type;location;lat;lon;timestamp;pressure;altitude;pressure_sealevel;temperature;humidity
36748;BME280;22716;51.556;5.080;2023-04-22T00:00:10;100111.25;;;9.26;100.00
36748;BME280;22716;51.556;5.080;2023-04-22T00:02:39;100118.22;;;9.27;100.00
36748;BME280;22716;51.556;5.080;2023-04-22T00:05:09;100117.41;;;9.24;100.00
36748;BME280;22716;51.556;5.080;2023-04-22T00:07:41;100120.84;;;9.26;100.00
36748;BME280;22716;51.556;5.080;2023-04-22T00:10:10;100119.16;;;9.23;100.00
36748;BME280;22716;51.556;5.080;2023-04-22T00:12:39;100113.03;;;9.24;100.00
36748;BME280;22716;51.556;5.080;2023-04-22T00:15:09;100115.72;;;9.20;100.00
36748;BME280;22716;51.556;5.080;2023-04-22T00:17:39;100107.91;;;9.18;100.00
36748;BME280;22716;51.556;5.080;2023-04-22T00:20:09;100108.78;;;9.17;100.00
36748;BME280;22716;51.556;5.080;2023-04-22T00:22:41;100111.56;;;9.08;100.00
36748;BME280;22716;51.556;5.080;2023-04-22T00:25:09;100120.16;;;9.13;100.00
36748;BME280;22716;51.556;5.080;2023-04-22T00:27:38;100118.41;;;9.15;100.00
36748;BME280;22716;51.556;5.080;2023-04-22T00:30:08;100116.72;;;9.11;100.00
36748;BME280;22716;51.556;5.080;2023-04-22T00:32:37;100116.72;;;9.11;100.00
36748;BME280;22716;51.556;5.080;2023-04-22T00:35:07;100120.16;;;9.13;100.00
36748;BME280;22716;51.556;5.080;2023-04-22T00:37:36;100127.19;;;9.13;100.00
36748;BME280;22716;51.556;5.080;2023-04-22T00:40:09;100125.50;;;9.07;100.00
36748;BME280;22716;51.556;5.080;2023-04-22T00:42:38;100124.66;;;9.07;100.00
36748;BME280;22716;51.556;5.080;2023-04-22T00:45:10;100131.63;;;9.05;100.00
36748;BME280;22716;51.556;5.080;2023-04-22T00:47:40;100134.19;;;9.09;100.00
36748;BME280;22716;51.556;5.080;2023-04-22T00:50:09;100119.47;;;9.04;100.00
36748;BME280;22716;51.556;5.080;2023-04-22T00:52:38;100128.97;;;9.09;100.00
36748;BME280;22716;51.556;5.080;2023-04-22T00:55:10;100124.53;;;9.14;100.00
36748;BME280;22716;51.556;5.080;2023-04-22T00:57:39;100118.47;;;9.11;100.00
36748;BME280;22716;51.556;5.080;2023-04-22T01:00:09;100134.97;;;9.16;100.00
36748;BME280;22716;51.556;5.080;2023-04-22T01:02:38;100136.72;;;9.15;100.00
36748;BME280;22716;51.556;5.080;2023-04-22T01:05:08;100127.28;;;9.05;100.00
36748;BME280;22716;51.556;5.080;2023-04-22T01:07:37;100113.53;;;8.92;100.00
36748;BME280;22716;51.556;5.080;2023-04-22T01:10:10;100132.53;;;9.04;100.00
36748;BME280;22716;51.556;5.080;2023-04-22T01:12:38;100136.88;;;9.05;100.00
36748;BME280;22716;51.556;5.080;2023-04-22T01:15:08;100142.03;;;9.09;100.00
36748;BME280;22716;51.556;5.080;2023-04-22T01:17:37;100133.28;;;9.10;100.00
36748;BME280;22716;51.556;5.080;2023-04-22T01:20:07;100137.63;;;9.11;100.00
36748;BME280;22716;51.556;5.080;2023-04-22T01:22:40;100132.44;;;9.10;100.00
36748;BME280;22716;51.556;5.080;2023-04-22T01:25:12;100126.44;;;9.03;100.00
36748;BME280;22716;51.556;5.080;2023-04-22T01:27:41;100130.84;;;9.01;100.00
36748;BME280;22716;51.556;5.080;2023-04-22T01:30:12;100120.41;;;8.99;100.00
36748;BME280;22716;51.556;5.080;2023-04-22T01:32:43;100129.06;;;9.03;100.00
36748;BME280;22716;51.556;5.080;2023-04-22T01:35:12;100131.63;;;9.05;100.00
36748;BME280;22716;51.556;5.080;2023-04-22T01:37:41;100120.34;;;9.04;100.00
36748;BME280;22716;51.556;5.080;2023-04-22T01:40:15;100126.41;;;9.05;100.00
36748;BME280;22716;51.556;5.080;2023-04-22T01:42:45;100115.16;;;9.01;100.00
36748;BME280;22716;51.556;5.080;2023-04-22T01:45:14;100116.88;;;9.02;100.00
36748;BME280;22716;51.556;5.080;2023-04-22T01:47:43;100109.09;;;8.99;100.00
36748;BME280;22716;51.556;5.080;2023-04-22T01:50:12;100107.47;;;8.92;100.00
36748;BME280;22716;51.556;5.080;2023-04-22T01:52:40;100110.91;;;8.92;100.00
36748;BME280;22716;51.556;5.080;2023-04-22T01:55:12;100110.97;;;8.91;100.00
36748;BME280;22716;51.556;5.080;2023-04-22T01:57:41;100107.47;;;8.90;100.00
36748;BME280;22716;51.556;5.080;2023-04-22T02:00:11;100108.38;;;8.88;100.00
36748;BME280;22716;51.556;5.080;2023-04-22T02:02:41;100111.00;;;8.88;100.00
36748;BME280;22716;51.556;5.080;2023-04-22T02:05:09;100117.00;;;8.93;100.00
36748;BME280;22716;51.556;5.080;2023-04-22T02:07:38;100115.22;;;8.96;100.00
36748;BME280;22716;51.556;5.080;2023-04-22T02:10:08;100096.16;;;8.90;100.00
36748;BME280;22716;51.556;5.080;2023-04-22T02:12:41;100113.53;;;8.94;100.00
36748;BME280;22716;51.556;5.080;2023-04-22T02:15:10;100106.59;;;8.90;100.00
36748;BME280;22716;51.556;5.080;2023-04-22T02:17:41;100097.16;;;8.81;100.00
36748;BME280;22716;51.556;5.080;2023-04-22T02:20:12;100104.22;;;8.75;100.00
36748;BME280;22716;51.556;5.080;2023-04-22T02:22:42;100106.03;;;8.71;100.00
36748;BME280;22716;51.556;5.080;2023-04-22T02:25:11;100099.13;;;8.69;100.00
36748;BME280;22716;51.556;5.080;2023-04-22T02:27:42;100103.56;;;8.62;100.00
36748;BME280;22716;51.556;5.080;2023-04-22T02:30:11;100095.72;;;8.61;100.00
36748;BME280;22716;51.556;5.080;2023-04-22T02:32:40;100088.84;;;8.57;100.00
36748;BME280;22716;51.556;5.080;2023-04-22T02:35:10;100096.63;;;8.58;100.00
36748;BME280;22716;51.556;5.080;2023-04-22T02:37:39;100098.38;;;8.58;100.00
36748;BME280;22716;51.556;5.080;2023-04-22T02:40:09;100102.69;;;8.60;100.00
36748;BME280;22716;51.556;5.080;2023-04-22T02:42:38;100098.41;;;8.55;100.00
36748;BME280;22716;51.556;5.080;2023-04-22T02:45:10;100094.94;;;8.56;100.00
36748;BME280;22716;51.556;5.080;2023-04-22T02:47:39;100083.72;;;8.51;100.00
36748;BME280;22716;51.556;5.080;2023-04-22T02:50:09;100096.72;;;8.54;100.00
36748;BME280;22716;51.556;5.080;2023-04-22T02:52:38;100090.66;;;8.50;100.00
36748;BME280;22716;51.556;5.080;2023-04-22T02:55:08;100087.97;;;8.55;100.00
36748;BME280;22716;51.556;5.080;2023-04-22T02:57:39;100093.06;;;8.64;100.00
36748;BME280;22716;51.556;5.080;2023-04-22T03:00:11;100070.59;;;8.54;100.00
36748;BME280;22716;51.556;5.080;2023-04-22T03:02:40;100095.59;;;8.70;100.00
36748;BME280;22716;51.556;5.080;2023-04-22T03:05:09;100087.66;;;8.76;100.00
36748;BME280;22716;51.556;5.080;2023-04-22T03:07:38;100077.19;;;8.80;100.00
36748;BME280;22716;51.556;5.080;2023-04-22T03:10:08;100072.88;;;8.75;100.00
36748;BME280;22716;51.556;5.080;2023-04-22T03:12:36;100075.47;;;8.76;100.00
36748;BME280;22716;51.556;5.080;2023-04-22T03:15:07;100069.47;;;8.71;100.00
36748;BME280;22716;51.556;5.080;2023-04-22T03:17:38;100069.53;;;8.68;100.00
36748;BME280;22716;51.556;5.080;2023-04-22T03:20:08;100073.81;;;8.71;100.00
36748;BME280;22716;51.556;5.080;2023-04-22T03:22:37;100066.03;;;8.66;100.00
36748;BME280;22716;51.556;5.080;2023-04-22T03:25:08;100065.13;;;8.70;100.00
36748;BME280;22716;51.556;5.080;2023-04-22T03:27:37;100059.06;;;8.68;100.00
36748;BME280;22716;51.556;5.080;2023-04-22T03:30:07;100058.22;;;8.68;100.00
36748;BME280;22716;51.556;5.080;2023-04-22T03:32:39;100043.50;;;8.62;100.00
36748;BME280;22716;51.556;5.080;2023-04-22T03:35:08;100039.16;;;8.61;100.00
36748;BME280;22716;51.556;5.080;2023-04-22T03:37:37;100039.06;;;8.69;100.00
36748;BME280;22716;51.556;5.080;2023-04-22T03:40:08;100047.66;;;8.74;100.00
36748;BME280;22716;51.556;5.080;2023-04-22T03:42:37;100043.31;;;8.74;100.00
36748;BME280;22716;51.556;5.080;2023-04-22T03:45:07;100030.25;;;8.73;100.00
36748;BME280;22716;51.556;5.080;2023-04-22T03:47:38;100031.16;;;8.72;100.00
36748;BME280;22716;51.556;5.080;2023-04-22T03:50:08;100025.03;;;8.73;100.00
36748;BME280;22716;51.556;5.080;2023-04-22T03:52:37;100032.81;;;8.77;100.00
36748;BME280;22716;51.556;5.080;2023-04-22T03:55:07;100025.88;;;8.75;100.00
36748;BME280;22716;51.556;5.080;2023-04-22T03:57:36;100014.53;;;8.76;100.00
36748;BME280;22716;51.556;5.080;2023-04-22T04:00:07;100011.97;;;8.73;100.00
36748;BME280;22716;51.556;5.080;2023-04-22T04:02:38;100009.31;;;8.76;100.00
36748;BME280;22716;51.556;5.080;2023-04-22T04:05:08;100010.13;;;8.79;100.00
36748;BME280;22716;51.556;5.080;2023-04-22T04:07:38;100017.94;;;8.82;100.00
36748;BME280;22716;51.556;5.080;2023-04-22T04:10:09;100022.28;;;8.83;100.00
36748;BME280;22716;51.556;5.080;2023-04-22T04:12:38;100017.88;;;8.84;100.00
36748;BME280;22716;51.556;5.080;2023-04-22T04:15:08;100015.31;;;8.82;100.00
36748;BME280;22716;51.556;5.080;2023-04-22T04:17:39;100006.59;;;8.82;100.00
36748;BME280;22716;51.556;5.080;2023-04-22T04:20:09;99997.13;;;8.76;100.00
36748;BME280;22716;51.556;5.080;2023-04-22T04:22:38;100004.91;;;8.79;100.00
36748;BME280;22716;51.556;5.080;2023-04-22T04:25:08;99999.69;;;8.78;100.00
36748;BME280;22716;51.556;5.080;2023-04-22T04:27:37;99998.88;;;8.77;100.00
36748;BME280;22716;51.556;5.080;2023-04-22T04:30:08;99991.91;;;8.75;100.00
36748;BME280;22716;51.556;5.080;2023-04-22T04:32:40;100001.44;;;8.79;100.00
36748;BME280;22716;51.556;5.080;2023-04-22T04:35:10;99997.09;;;8.79;100.00
36748;BME280;22716;51.556;5.080;2023-04-22T04:37:41;100004.81;;;8.84;100.00
36748;BME280;22716;51.556;5.080;2023-04-22T04:40:11;99991.91;;;8.76;100.00
36748;BME280;22716;51.556;5.080;2023-04-22T04:42:39;99985.00;;;8.72;100.00
36748;BME280;22716;51.556;5.080;2023-04-22T04:45:10;100000.50;;;8.81;100.00
36748;BME280;22716;51.556;5.080;2023-04-22T04:47:41;99997.00;;;8.84;100.00
36748;BME280;22716;51.556;5.080;2023-04-22T04:50:10;99991.69;;;8.88;100.00
36748;BME280;22716;51.556;5.080;2023-04-22T04:52:40;99994.31;;;8.88;100.00
36748;BME280;22716;51.556;5.080;2023-04-22T04:55:09;100003.91;;;8.88;100.00
36748;BME280;22716;51.556;5.080;2023-04-22T04:57:37;99999.59;;;8.84;100.00
36748;BME280;22716;51.556;5.080;2023-04-22T05:00:07;99997.09;;;8.79;100.00
36748;BME280;22716;51.556;5.080;2023-04-22T05:02:36;100005.63;;;8.89;100.00
36748;BME280;22716;51.556;5.080;2023-04-22T05:05:09;100004.66;;;8.93;100.00
36748;BME280;22716;51.556;5.080;2023-04-22T05:07:37;100006.41;;;8.92;100.00
36748;BME280;22716;51.556;5.080;2023-04-22T05:10:08;99996.88;;;8.91;100.00
36748;BME280;22716;51.556;5.080;2023-04-22T05:12:37;99997.75;;;8.92;100.00
36748;BME280;22716;51.556;5.080;2023-04-22T05:15:07;100007.28;;;8.93;100.00
36748;BME280;22716;51.556;5.080;2023-04-22T05:17:36;100009.03;;;8.94;100.00
36748;BME280;22716;51.556;5.080;2023-04-22T05:20:09;100013.44;;;8.90;100.00
36748;BME280;22716;51.556;5.080;2023-04-22T05:22:38;100010.91;;;8.86;100.00
36748;BME280;22716;51.556;5.080;2023-04-22T05:25:09;100007.47;;;8.81;100.00
36748;BME280;22716;51.556;5.080;2023-04-22T05:27:39;100005.84;;;8.75;100.00
36748;BME280;22716;51.556;5.080;2023-04-22T05:30:09;100012.75;;;8.79;100.00
36748;BME280;22716;51.556;5.080;2023-04-22T05:32:38;100011.88;;;8.80;100.00
36748;BME280;22716;51.556;5.080;2023-04-22T05:35:10;99985.94;;;8.68;100.00
36748;BME280;22716;51.556;5.080;2023-04-22T05:37:38;99999.69;;;8.78;100.00
36748;BME280;22716;51.556;5.080;2023-04-22T05:40:08;100008.41;;;8.80;100.00
36748;BME280;22716;51.556;5.080;2023-04-22T05:42:37;100006.72;;;8.76;100.00
36748;BME280;22716;51.556;5.080;2023-04-22T05:45:08;100000.56;;;8.78;100.00
36748;BME280;22716;51.556;5.080;2023-04-22T05:47:36;99993.41;;;8.89;100.00
36748;BME280;22716;51.556;5.080;2023-04-22T05:50:10;99996.84;;;8.93;100.00
36748;BME280;22716;51.556;5.080;2023-04-22T05:52:38;99991.56;;;8.97;100.00
36748;BME280;22716;51.556;5.080;2023-04-22T05:55:07;99997.53;;;9.02;100.00
36748;BME280;22716;51.556;5.080;2023-04-22T05:57:36;100001.75;;;9.11;100.00
36748;BME280;22716;51.556;5.080;2023-04-22T06:00:07;99986.22;;;9.04;100.00
36748;BME280;22716;51.556;5.080;2023-04-22T06:02:36;99999.91;;;9.18;100.00
36748;BME280;22716;51.556;5.080;2023-04-22T06:05:09;99993.69;;;9.22;100.00
36748;BME280;22716;51.556;5.080;2023-04-22T06:07:37;99992.81;;;9.24;100.00
36748;BME280;22716;51.556;5.080;2023-04-22T06:10:08;99989.97;;;9.36;100.00
36748;BME280;22716;51.556;5.080;2023-04-22T06:12:37;99991.50;;;9.46;100.00
36748;BME280;22716;51.556;5.080;2023-04-22T06:15:07;99994.81;;;9.54;100.00
36748;BME280;22716;51.556;5.080;2023-04-22T06:17:36;99978.25;;;9.55;100.00
36748;BME280;22716;51.556;5.080;2023-04-22T06:20:10;99977.94;;;9.71;100.00
36748;BME280;22716;51.556;5.080;2023-04-22T06:22:38;99987.25;;;9.84;100.00
36748;BME280;22716;51.556;5.080;2023-04-22T06:25:08;99986.22;;;9.91;100.00
36748;BME280;22716;51.556;5.080;2023-04-22T06:27:37;99994.88;;;9.94;100.00
36748;BME280;22716;51.556;5.080;2023-04-22T06:30:07;99987.59;;;10.07;100.00
36748;BME280;22716;51.556;5.080;2023-04-22T06:32:36;99985.88;;;10.46;100.00
36748;BME280;22716;51.556;5.080;2023-04-22T06:35:09;99993.09;;;10.73;100.00
36748;BME280;22716;51.556;5.080;2023-04-22T06:37:38;99962.38;;;10.44;100.00
36748;BME280;22716;51.556;5.080;2023-04-22T06:40:09;99982.25;;;10.53;100.00
36748;BME280;22716;51.556;5.080;2023-04-22T06:42:38;99973.44;;;10.55;100.00
36748;BME280;22716;51.556;5.080;2023-04-22T06:45:07;99973.28;;;10.61;100.00
36748;BME280;22716;51.556;5.080;2023-04-22T06:47:37;99968.88;;;10.63;100.00
36748;BME280;22716;51.556;5.080;2023-04-22T06:50:10;99968.44;;;10.82;100.00
36748;BME280;22716;51.556;5.080;2023-04-22T06:52:38;99959.78;;;10.78;100.00
36748;BME280;22716;51.556;5.080;2023-04-22T06:55:09;99969.22;;;10.84;100.00
36748;BME280;22716;51.556;5.080;2023-04-22T06:57:38;99973.50;;;10.88;100.00
36748;BME280;22716;51.556;5.080;2023-04-22T07:00:08;99984.84;;;10.88;100.00
36748;BME280;22716;51.556;5.080;2023-04-22T07:02:36;99978.81;;;10.85;100.00
36748;BME280;22716;51.556;5.080;2023-04-22T07:05:09;99981.25;;;10.92;100.00
36748;BME280;22716;51.556;5.080;2023-04-22T07:07:38;99981.16;;;10.97;100.00
36748;BME280;22716;51.556;5.080;2023-04-22T07:10:08;99974.91;;;11.01;100.00
36748;BME280;22716;51.556;5.080;2023-04-22T07:12:37;99971.22;;;11.08;100.00
36748;BME280;22716;51.556;5.080;2023-04-22T07:15:07;99983.88;;;11.24;100.00
36748;BME280;22716;51.556;5.080;2023-04-22T07:17:36;99976.69;;;11.33;100.00
36748;BME280;22716;51.556;5.080;2023-04-22T07:20:06;99983.22;;;11.49;100.00
36748;BME280;22716;51.556;5.080;2023-04-22T07:22:38;99985.53;;;11.61;100.00
36748;BME280;22716;51.556;5.080;2023-04-22T07:25:08;99988.84;;;11.67;100.00
36748;BME280;22716;51.556;5.080;2023-04-22T07:27:37;99978.28;;;11.70;100.00
36748;BME280;22716;51.556;5.080;2023-04-22T07:30:07;99973.50;;;11.85;100.00
36748;BME280;22716;51.556;5.080;2023-04-22T07:32:36;99976.16;;;11.83;100.00
36748;BME280;22716;51.556;5.080;2023-04-22T07:35:06;99993.41;;;11.92;100.00
36748;BME280;22716;51.556;5.080;2023-04-22T07:37:37;99992.13;;;12.05;100.00
36748;BME280;22716;51.556;5.080;2023-04-22T07:40:08;100005.63;;;12.22;100.00
36748;BME280;22716;51.556;5.080;2023-04-22T07:42:43;99987.66;;;12.36;100.00
36748;BME280;22716;51.556;5.080;2023-04-22T07:45:13;99965.38;;;12.49;100.00
36748;BME280;22716;51.556;5.080;2023-04-22T07:47:42;99948.59;;;12.53;100.00
36748;BME280;22716;51.556;5.080;2023-04-22T07:50:11;99950.19;;;12.57;100.00
36748;BME280;22716;51.556;5.080;2023-04-22T07:52:43;99945.34;;;12.71;100.00
36748;BME280;22716;51.556;5.080;2023-04-22T07:55:11;99946.88;;;12.78;100.00
36748;BME280;22716;51.556;5.080;2023-04-22T07:57:40;99950.69;;;12.94;100.00
36748;BME280;22716;51.556;5.080;2023-04-22T08:00:10;99959.09;;;13.06;100.00
36748;BME280;22716;51.556;5.080;2023-04-22T08:02:39;99950.28;;;13.08;100.00
36748;BME280;22716;51.556;5.080;2023-04-22T08:05:08;99950.81;;;13.18;100.00
36748;BME280;22716;51.556;5.080;2023-04-22T08:07:37;99963.78;;;13.22;100.00
36748;BME280;22716;51.556;5.080;2023-04-22T08:10:09;99957.25;;;13.34;100.00
36748;BME280;22716;51.556;5.080;2023-04-22T08:12:38;99946.56;;;13.38;100.00
36748;BME280;22716;51.556;5.080;2023-04-22T08:15:08;99943.88;;;13.40;100.00
36748;BME280;22716;51.556;5.080;2023-04-22T08:17:37;99939.50;;;13.39;100.00
36748;BME280;22716;51.556;5.080;2023-04-22T08:20:07;99941.34;;;13.37;100.00
36748;BME280;22716;51.556;5.080;2023-04-22T08:22:37;99929.19;;;13.33;100.00
36748;BME280;22716;51.556;5.080;2023-04-22T08:25:10;99927.91;;;13.44;100.00
36748;BME280;22716;51.556;5.080;2023-04-22T08:27:39;99936.09;;;13.60;100.00
36748;BME280;22716;51.556;5.080;2023-04-22T08:30:09;99939.38;;;13.67;100.00
36748;BME280;22716;51.556;5.080;2023-04-22T08:32:38;99931.16;;;13.74;100.00
36748;BME280;22716;51.556;5.080;2023-04-22T08:35:08;99925.44;;;13.86;100.00
36748;BME280;22716;51.556;5.080;2023-04-22T08:37:36;99926.81;;;13.96;100.00
36748;BME280;22716;51.556;5.080;2023-04-22T08:40:10;99921.31;;;14.02;100.00
36748;BME280;22716;51.556;5.080;2023-04-22T08:42:39;99913.06;;;14.12;100.00
36748;BME280;22716;51.556;5.080;2023-04-22T08:45:09;99913.53;;;14.21;100.00
36748;BME280;22716;51.556;5.080;2023-04-22T08:47:38;99897.56;;;14.26;100.00
36748;BME280;22716;51.556;5.080;2023-04-22T08:50:08;99869.81;;;14.17;100.00
36748;BME280;22716;51.556;5.080;2023-04-22T08:52:37;99871.34;;;14.23;100.00
36748;BME280;22716;51.556;5.080;2023-04-22T08:55:10;99868.09;;;14.16;100.00
36748;BME280;22716;51.556;5.080;2023-04-22T08:57:39;99883.53;;;14.25;100.00
36748;BME280;22716;51.556;5.080;2023-04-22T09:00:10;99873.03;;;14.24;100.00
36748;BME280;22716;51.556;5.080;2023-04-22T09:02:41;99867.75;;;14.24;100.00
36748;BME280;22716;51.556;5.080;2023-04-22T09:05:13;99868.63;;;14.24;100.00
36748;BME280;22716;51.556;5.080;2023-04-22T09:07:42;99879.03;;;14.27;100.00
36748;BME280;22716;51.556;5.080;2023-04-22T09:10:13;99882.41;;;14.31;100.00
36748;BME280;22716;51.556;5.080;2023-04-22T09:12:42;99883.19;;;14.34;100.00
36748;BME280;22716;51.556;5.080;2023-04-22T09:15:12;99875.16;;;14.37;100.00
36748;BME280;22716;51.556;5.080;2023-04-22T09:17:41;99882.84;;;14.42;100.00
36748;BME280;22716;51.556;5.080;2023-04-22T09:20:10;99883.84;;;14.39;100.00
36748;BME280;22716;51.556;5.080;2023-04-22T09:22:42;99899.03;;;14.54;100.00
36748;BME280;22716;51.556;5.080;2023-04-22T09:25:18;99880.66;;;14.53;100.00
36748;BME280;22716;51.556;5.080;2023-04-22T09:27:48;99897.53;;;14.69;100.00
36748;BME280;22716;51.556;5.080;2023-04-22T09:30:18;99897.47;;;14.71;100.00
36748;BME280;22716;51.556;5.080;2023-04-22T09:32:54;99885.25;;;14.68;100.00
36748;BME280;22716;51.556;5.080;2023-04-22T09:35:27;99888.31;;;14.79;100.00
36748;BME280;22716;51.556;5.080;2023-04-22T09:37:58;99895.00;;;14.88;100.00
36748;BME280;22716;51.556;5.080;2023-04-22T09:40:30;99878.34;;;14.86;100.00
36748;BME280;22716;51.556;5.080;2023-04-22T09:43:00;99911.19;;;14.99;100.00
36748;BME280;22716;51.556;5.080;2023-04-22T09:45:31;99912.84;;;15.01;100.00
36748;BME280;22716;51.556;5.080;2023-04-22T09:48:03;99914.56;;;15.02;100.00
36748;BME280;22716;51.556;5.080;2023-04-22T09:50:34;99910.34;;;14.98;100.00
36748;BME280;22716;51.556;5.080;2023-04-22T09:53:05;99901.38;;;15.02;100.00
36748;BME280;22716;51.556;5.080;2023-04-22T09:55:38;99895.97;;;15.05;100.00
36748;BME280;22716;51.556;5.080;2023-04-22T09:58:09;99904.19;;;15.18;100.00
36748;BME280;22716;51.556;5.080;2023-04-22T10:00:42;99905.28;;;15.33;100.00
36748;BME280;22716;51.556;5.080;2023-04-22T10:03:12;99912.66;;;15.45;100.00
36748;BME280;22716;51.556;5.080;2023-04-22T10:05:41;99899.19;;;15.52;100.00
36748;BME280;22716;51.556;5.080;2023-04-22T10:08:12;99900.81;;;15.55;100.00
36748;BME280;22716;51.556;5.080;2023-04-22T10:10:44;99897.81;;;15.62;100.00
36748;BME280;22716;51.556;5.080;2023-04-22T10:13:13;99907.75;;;15.76;100.00
36748;BME280;22716;51.556;5.080;2023-04-22T10:15:46;99906.03;;;15.94;100.00
36748;BME280;22716;51.556;5.080;2023-04-22T10:18:20;99907.44;;;16.01;100.00
36748;BME280;22716;51.556;5.080;2023-04-22T10:20:51;99913.22;;;16.09;100.00
36748;BME280;22716;51.556;5.080;2023-04-22T10:23:23;99905.88;;;16.15;100.00
36748;BME280;22716;51.556;5.080;2023-04-22T10:25:55;99899.44;;;16.21;100.00
36748;BME280;22716;51.556;5.080;2023-04-22T10:28:27;99896.00;;;16.19;100.00
36748;BME280;22716;51.556;5.080;2023-04-22T10:30:56;99903.03;;;16.20;100.00
36748;BME280;22716;51.556;5.080;2023-04-22T10:33:39;99888.84;;;16.21;100.00
36748;BME280;22716;51.556;5.080;2023-04-22T10:36:10;99890.97;;;16.14;100.00
36748;BME280;22716;51.556;5.080;2023-04-22T10:41:50;99879.69;;;15.92;100.00
36748;BME280;22716;51.556;5.080;2023-04-22T10:44:19;99884.47;;;15.84;100.00
36748;BME280;22716;51.556;5.080;2023-04-22T10:46:57;99889.13;;;15.79;100.00
36748;BME280;22716;51.556;5.080;2023-04-22T10:49:28;99898.97;;;15.76;100.00
36748;BME280;22716;51.556;5.080;2023-04-22T10:52:00;99902.75;;;15.70;100.00
36748;BME280;22716;51.556;5.080;2023-04-22T10:54:57;99912.66;;;15.65;100.00
36748;BME280;22716;51.556;5.080;2023-04-22T10:57:37;99917.56;;;15.54;100.00
36748;BME280;22716;51.556;5.080;2023-04-22T11:00:24;99923.38;;;15.42;100.00
36748;BME280;22716;51.556;5.080;2023-04-22T11:03:06;99915.47;;;15.22;100.00
36748;BME280;22716;51.556;5.080;2023-04-22T11:05:36;99919.50;;;15.10;100.00
36748;BME280;22716;51.556;5.080;2023-04-22T11:08:07;99932.56;;;15.13;100.00
36748;BME280;22716;51.556;5.080;2023-04-22T11:10:38;99922.28;;;15.07;100.00
36748;BME280;22716;51.556;5.080;2023-04-22T11:13:15;99906.78;;;14.99;100.00
36748;BME280;22716;51.556;5.080;2023-04-22T11:15:46;99912.50;;;15.09;100.00
36748;BME280;22716;51.556;5.080;2023-04-22T11:18:20;99916.94;;;15.08;100.00
36748;BME280;22716;51.556;5.080;2023-04-22T11:20:50;99900.78;;;14.96;100.00
36748;BME280;22716;51.556;5.080;2023-04-22T11:23:22;99911.47;;;14.93;100.00
36748;BME280;22716;51.556;5.080;2023-04-22T11:25:56;99913.31;;;14.91;100.00
36748;BME280;22716;51.556;5.080;2023-04-22T11:28:31;99918.84;;;14.85;100.00
36748;BME280;22716;51.556;5.080;2023-04-22T11:31:02;99925.16;;;14.81;100.00
36748;BME280;22716;51.556;5.080;2023-04-22T11:33:32;99926.34;;;14.74;100.00
36748;BME280;22716;51.556;5.080;2023-04-22T11:36:04;99921.25;;;14.69;100.00
36748;BME280;22716;51.556;5.080;2023-04-22T11:38:32;99926.00;;;14.61;100.00
36748;BME280;22716;51.556;5.080;2023-04-22T11:41:01;99938.91;;;14.47;100.00
36748;BME280;22716;51.556;5.080;2023-04-22T11:43:32;99928.13;;;14.30;100.00
36748;BME280;22716;51.556;5.080;2023-04-22T11:46:02;99933.50;;;14.27;100.00
36748;BME280;22716;51.556;5.080;2023-04-22T11:48:30;99904.41;;;14.08;100.00
36748;BME280;22716;51.556;5.080;2023-04-22T11:51:09;99929.22;;;14.24;100.00
36748;BME280;22716;51.556;5.080;2023-04-22T11:53:49;99918.63;;;14.26;100.00
36748;BME280;22716;51.556;5.080;2023-04-22T11:56:19;99911.59;;;14.26;100.00
36748;BME280;22716;51.556;5.080;2023-04-22T11:58:51;99910.72;;;14.26;100.00
36748;BME280;22716;51.556;5.080;2023-04-22T12:01:20;99898.53;;;14.23;100.00
36748;BME280;22716;51.556;5.080;2023-04-22T12:03:58;99883.97;;;14.15;100.00
36748;BME280;22716;51.556;5.080;2023-04-22T12:06:29;99895.34;;;14.15;100.00
36748;BME280;22716;51.556;5.080;2023-04-22T12:08:58;99908.22;;;14.23;100.00
36748;BME280;22716;51.556;5.080;2023-04-22T12:11:27;99910.00;;;14.22;100.00
36748;BME280;22716;51.556;5.080;2023-04-22T12:14:04;99901.22;;;14.22;100.00
36748;BME280;22716;51.556;5.080;2023-04-22T12:16:39;99901.34;;;14.19;100.00
36748;BME280;22716;51.556;5.080;2023-04-22T12:19:10;99911.88;;;14.19;100.00
36748;BME280;22716;51.556;5.080;2023-04-22T12:21:40;99919.88;;;14.17;100.00
36748;BME280;22716;51.556;5.080;2023-04-22T12:24:10;99911.44;;;14.08;100.00
36748;BME280;22716;51.556;5.080;2023-04-22T12:26:40;99914.44;;;13.98;100.00
36748;BME280;22716;51.556;5.080;2023-04-22T12:29:11;99918.06;;;13.96;100.00
36748;BME280;22716;51.556;5.080;2023-04-22T12:31:40;99920.06;;;13.89;100.00
36748;BME280;22716;51.556;5.080;2023-04-22T12:34:09;99924.66;;;13.84;100.00
36748;BME280;22716;51.556;5.080;2023-04-22T12:36:37;99912.13;;;13.91;100.00
36748;BME280;22716;51.556;5.080;2023-04-22T12:39:06;99921.31;;;14.02;100.00
36748;BME280;22716;51.556;5.080;2023-04-22T12:41:35;99920.16;;;14.10;100.00
36748;BME280;22716;51.556;5.080;2023-04-22T12:44:04;99920.72;;;14.18;100.00
36748;BME280;22716;51.556;5.080;2023-04-22T12:46:36;99925.00;;;14.20;100.00
36748;BME280;22716;51.556;5.080;2023-04-22T12:49:04;99909.97;;;14.00;100.00
36748;BME280;22716;51.556;5.080;2023-04-22T12:51:33;99941.56;;;14.00;100.00
36748;BME280;22716;51.556;5.080;2023-04-22T12:54:02;99933.91;;;13.94;100.00
36748;BME280;22716;51.556;5.080;2023-04-22T12:56:31;99928.28;;;13.82;100.00
36748;BME280;22716;51.556;5.080;2023-04-22T12:58:59;99933.47;;;13.83;100.00
36748;BME280;22716;51.556;5.080;2023-04-22T13:01:28;99930.09;;;13.80;100.00
36748;BME280;22716;51.556;5.080;2023-04-22T13:04:00;99935.19;;;13.84;100.00
36748;BME280;22716;51.556;5.080;2023-04-22T13:06:31;99924.88;;;13.78;100.00
36748;BME280;22716;51.556;5.080;2023-04-22T13:09:01;99930.94;;;13.80;100.00